Πλησιέστερες Αναφορές METAR

 

LGTS - Thessaloniki/Makedonia-Elev 7m
Distance from station: Ν 13km
Ενημερώθηκε: 19/07/2024 09:20
Few Clouds
Few Clouds
 Ανεμος από varies
Ανεμος: varies 6 km/h
Θερμοκρασία: 31°C
Heat Index: 34°C
Σημείο Δρόσου: 21°C
Υγρασία: 55%
Βαρόμετρο: 1013 hPa
Clouds: Few Clouds
Visibility: 10 km
Cloud details: Few Clouds 914 m
2024/07/19 06:20 LGTS 190620Z VRB03KT 9999 FEW030 31/21 Q1013 NOSIG
LGAV - Athens/Elef. Venizelos-Elev 94m
Distance from station: ΝΝΑ 312km
Ενημερώθηκε: 19/07/2024 09:20
Αίθριος
Αίθριος
 Ανεμος από ΒΒΑ
Ανεμος: ΒΒΑ 28 km/h
Θερμοκρασία: 32°C
Σημείο Δρόσου: 12°C
Υγρασία: 29%
Βαρόμετρο: 1010 hPa
Συνθήκες: Αίθριος
Visibility: greater than 10 km
2024/07/19 06:20 LGAV 190620Z 03015KT CAVOK 32/12 Q1010 NOSIG
 
LGAL - Alexandroupolis-Elev 3m
Distance from station: Α 251km
Ενημερώθηκε: 19/07/2024 09:20
Few Clouds
Few Clouds
 Ανεμος από ΒΒΑ
Ανεμος: ΒΒΑ 33 km/h
Θερμοκρασία: 32°C
Σημείο Δρόσου: 15°C
Υγρασία: 36%
Βαρόμετρο: 1012 hPa
Clouds: Few Clouds
Visibility: 10 km
Cloud details: Few Clouds 762 m
2024/07/19 06:20 LGAL 190620Z 02018KT 9999 FEW025 32/15 Q1012
LGKV - Kavala/Crysoupolis-Elev 5m
Distance from station: ΑΒΑ 144km
Ενημερώθηκε: 19/07/2024 08:50
Μερικώς νεφελώδης
Μερικώς νεφελώδης
 Ανεμος από calm
Ανεμος: Απνοια
Θερμοκρασία: 27°C
Heat Index: 28°C
Σημείο Δρόσου: 18°C
Υγρασία: 58%
Βαρόμετρο: 1013 hPa
Clouds: Μερικώς νεφελώδης
Visibility: 10 km
Cloud details: Μερικώς νεφελώδης 1067 m
Μερικώς νεφελώδης 2438 m
2024/07/19 05:50 LGKV 190550Z 00000KT 9999 SCT035 SCT080 27/18 Q1013
 
LGSK - Skiathos Island-Elev 15m
Distance from station: ΝΝΑ 168km
Ενημερώθηκε: 19/07/2024 09:20
Αίθριος
Αίθριος
 Ανεμος από ΔΒΔ
Ανεμος: ΔΒΔ 13 km/h
Θερμοκρασία: 31°C
Heat Index: 35°C
Σημείο Δρόσου: 22°C
Υγρασία: 59%
Βαρόμετρο: 1012 hPa
Συνθήκες: Αίθριος
Visibility: greater than 10 km
2024/07/19 06:20 LGSK 190620Z 30007KT CAVOK 31/22 Q1012
LGLM - Limnos Island-Elev 5m
Distance from station: ΑΝΑ 210km
Ενημερώθηκε: 19/07/2024 09:20
Αίθριος
Αίθριος
 Ανεμος από ΒΑ
Ανεμος: ΒΑ 33 km/h
Θερμοκρασία: 30°C
Heat Index: 32°C
Σημείο Δρόσου: 20°C
Υγρασία: 55%
Βαρόμετρο: 1011 hPa
Συνθήκες: Αίθριος
Visibility: greater than 10 km
2024/07/19 06:20 LGLM 190620Z 04018KT CAVOK 30/20 Q1011
 
LGMT - Mitilini Island-Elev 17m
Distance from station: ΑΝΑ 358km
Ενημερώθηκε: 19/07/2024 09:20
Αίθριος
Αίθριος
 Ανεμος από Β
Ανεμος: Β 13 km/h
Θερμοκρασία: 29°C
Heat Index: 30°C
Σημείο Δρόσου: 19°C
Υγρασία: 55%
Βαρόμετρο: 1009 hPa
Συνθήκες: Αίθριος
Visibility: greater than 10 km
2024/07/19 06:20 LGMT 190620Z 36007KT CAVOK 29/19 Q1009
LGSY - Skiros Island-Elev 15m
Distance from station: ΝΑ 227km
Ενημερώθηκε: 19/07/2024 08:50
Αίθριος
Αίθριος
 Ανεμος από Β
Ανεμος: Β 22 km/h
Θερμοκρασία: 29°C
Heat Index: 31°C
Σημείο Δρόσου: 20°C
Υγρασία: 58%
Βαρόμετρο: 1010 hPa
Συνθήκες: Αίθριος
Visibility: greater than 10 km
2024/07/19 05:50 LGSY 190550Z 01012KT CAVOK 29/20 Q1010 BLU
 
LGKZ - Kozani-Elev 628m
Distance from station: ΔΝΔ 102km
Ενημερώθηκε: 19/07/2024 08:50
Σχεδόν νεφελώδης
Σχεδόν νεφελώδης
 Ανεμος από Β
Ανεμος: Β 17 km/h
Θερμοκρασία: 26°C
Σημείο Δρόσου: 11°C
Υγρασία: 39%
Βαρόμετρο: 1018 hPa
Clouds: Σχεδόν νεφελώδης
Visibility: 10 km
Cloud details: Μερικώς νεφελώδης 914 m
Σχεδόν νεφελώδης 2134 m
2024/07/19 05:50 LGKZ 190550Z 35009KT 9999 SCT030 BKN070 26/11 Q1018
LGIO - Ioannina-Elev 476m
Distance from station: ΔΝΔ 209km
Ενημερώθηκε: 19/07/2024 09:20
Αίθριος
Αίθριος
 Ανεμος από varies
Ανεμος: varies 4 km/h
Θερμοκρασία: 26°C
Σημείο Δρόσου: 21°C
Υγρασία: 74%
Βαρόμετρο: 1016 hPa
Συνθήκες: Αίθριος
Visibility: greater than 10 km
2024/07/19 06:20 LGIO 190620Z VRB02KT CAVOK 26/21 Q1016
 
LGZA - Zakinthos-Elev 3m
Distance from station: ΝΝΔ 367km
Ενημερώθηκε: 19/07/2024 09:20
Few Clouds
Few Clouds
 Ανεμος από Β
Ανεμος: Β 11 km/h
Θερμοκρασία: 34°C
Heat Index: 37°C
Σημείο Δρόσου: 21°C
Υγρασία: 47%
Βαρόμετρο: 1011 hPa
Clouds: Few Clouds
Visibility: 10 km
Cloud details: Few Clouds 2438 m
2024/07/19 06:20 LGZA 190620Z 36006KT 9999 FEW080 34/21 Q1011
LGKR - Corfu Island-Elev 2m
Distance from station: ΔΝΔ 282km
Ενημερώθηκε: 19/07/2024 09:20
Αίθριος
Αίθριος
 Ανεμος από calm
Ανεμος: Απνοια
Θερμοκρασία: 32°C
Heat Index: 40°C
Σημείο Δρόσου: 25°C
Υγρασία: 67%
Βαρόμετρο: 1010 hPa
Συνθήκες: Αίθριος
Visibility: greater than 10 km
2024/07/19 06:20 LGKR 190620Z 00000KT CAVOK 32/25 Q1010 NOSIG
 
LGSO - Syros Island-Elev 72m
Distance from station: ΝΝΑ 397km
Ενημερώθηκε: 19/07/2024 08:50
Αίθριος
Αίθριος
 Ανεμος από Β
Ανεμος: Β 30 km/h, Ριπή: 48 km/h
Θερμοκρασία: 28°C
Heat Index: 29°C
Σημείο Δρόσου: 18°C
Υγρασία: 55%
Βαρόμετρο: 1008 hPa
Συνθήκες: Αίθριος
Visibility: greater than 10 km
2024/07/19 05:50 LGSO 190550Z 36016G26KT CAVOK 28/18 Q1008
LGMK - Mikonos Island-Elev 123m
Distance from station: ΝΝΑ 412km
Ενημερώθηκε: 19/07/2024 09:20
Αίθριος
Αίθριος
 Ανεμος από Β
Ανεμος: Β 39 km/h
Θερμοκρασία: 27°C
Heat Index: 28°C
Σημείο Δρόσου: 18°C
Υγρασία: 58%
Βαρόμετρο: 1007 hPa
Συνθήκες: Αίθριος
Visibility: greater than 10 km
2024/07/19 06:20 LGMK 190620Z 01021KT CAVOK 27/18 Q1007
 
LGSR - Santorini Island-Elev 40m
Distance from station: ΝΝΑ 520km
Ενημερώθηκε: 19/07/2024 09:20
Αίθριος
Αίθριος
 Ανεμος από ΒΔ
Ανεμος: ΒΔ 24 km/h
Θερμοκρασία: 31°C
Heat Index: 33°C
Σημείο Δρόσου: 19°C
Υγρασία: 49%
Βαρόμετρο: 1006 hPa
Συνθήκες: Αίθριος
Visibility: greater than 10 km
2024/07/19 06:20 LGSR 190620Z 32013KT CAVOK 31/19 Q1006
LGKL - Kalamata-Elev 8m
Distance from station: Ν 405km
Ενημερώθηκε: 19/07/2024 09:20
Αίθριος
Αίθριος
 Ανεμος από Β
Ανεμος: Β 7 km/h
Θερμοκρασία: 35°C
Σημείο Δρόσου: 13°C
Υγρασία: 26%
Βαρόμετρο: 1009 hPa
Συνθήκες: Αίθριος
Visibility: greater than 10 km
2024/07/19 06:20 LGKL 190620Z 36004KT CAVOK 35/13 Q1009
 
LGIR - Iraklion/Crete-Elev 5m
Distance from station: ΝΝΑ 622km
Ενημερώθηκε: 19/07/2024 09:20
Αίθριος
Αίθριος
 Ανεμος από ΔΒΔ
Ανεμος: ΔΒΔ 26 km/h
Θερμοκρασία: 30°C
Heat Index: 33°C
Σημείο Δρόσου: 21°C
Υγρασία: 59%
Βαρόμετρο: 1007 hPa
Συνθήκες: Αίθριος
Visibility: greater than 10 km
2024/07/19 06:20 LGIR 190620Z 30014KT CAVOK 30/21 Q1007 NOSIG
LGRP - Rhodes-Elev 5m
Distance from station: ΝΑ 649km
Ενημερώθηκε: 19/07/2024 09:20
Few Clouds
Few Clouds
 Ανεμος από ΔΝΔ
Ανεμος: ΔΝΔ 19 km/h
Θερμοκρασία: 29°C
Heat Index: 32°C
Σημείο Δρόσου: 23°C
Υγρασία: 70%
Βαρόμετρο: 1003 hPa
Clouds: Few Clouds
Visibility: 10 km
Cloud details: Few Clouds 549 m
2024/07/19 06:20 LGRP 190620Z 24010KT 9999 FEW018 29/23 Q1003 NOSIG
 
LWOH - Ohrid/FYROM-Elev 761m
Distance from station: ΔΒΔ 188km
Ενημερώθηκε: 19/07/2024 09:50
Αίθριος
Αίθριος
 Ανεμος από ΝΑ
Ανεμος: ΝΑ 9 km/h
Θερμοκρασία: 25°C
Σημείο Δρόσου: 18°C
Υγρασία: 65%
Βαρόμετρο: 1019 hPa
Συνθήκες: Αίθριος
Visibility: greater than 10 km
2024/07/19 06:50 LWOH 190650Z 14005KT 120V190 CAVOK 25/18 Q1019
LBSF - Sofia/Bulgaria-Elev 595m
Distance from station: Β 227km
Ενημερώθηκε: 19/07/2024 09:30
Αίθριος
Αίθριος
 Ανεμος από ΔΒΔ
Ανεμος: ΔΒΔ 7 km/h
Θερμοκρασία: 25°C
Σημείο Δρόσου: 15°C
Υγρασία: 54%
Βαρόμετρο: 1019 hPa
Συνθήκες: Αίθριος
Visibility: greater than 10 km
2024/07/19 06:30 LBSF 190630Z 29004KT 230V330 CAVOK 25/15 Q1019 NOSIG
Σημερινά ρεκόρ Μετεωρολογικού Σταθμού
Δεν έχει σημειωθεί νέο ρεκόρ μέχρι τις 09:49 σήμερα - 19/7/2024